Time;durP1;ratioP1;P1;durP2;ratioP2;P2;SDS_P1;SDS_P2;PMS_P1;PMS_P2;Temp;Humidity;BMP_temperature;BMP_pressure;BME280_temperature;BME280_humidity;BME280_pressure;Samples;Min_cycle;Max_cycle;Signal;HPM_P1;HPM_P2
2024/02/09 00:01:36;;;;;;;;;;;8.30;99.90;;;;;;5025620;28;19967;-64
2024/02/09 00:04:12;;;;;;;;;;;8.30;99.90;;;;;;5028888;28;19932;-64
2024/02/09 00:06:44;;;;;;;;;;;8.40;99.90;;;;;;5029113;28;20023;-64
2024/02/09 00:09:15;;;;;;;;;;;8.40;99.90;;;;;;5010504;28;19961;-64
2024/02/09 00:11:49;;;;;;;;;;;8.40;99.90;;;;;;5012280;28;20372;-64
2024/02/09 00:14:16;;;;;;;;;;;8.30;99.90;;;;;;5028881;28;19921;-64
2024/02/09 00:16:47;;;;;;;;;;;8.30;99.90;;;;;;5010124;28;19925;-64
2024/02/09 00:19:19;;;;;;;;;;;8.30;99.90;;;;;;5026053;28;19954;-65
2024/02/09 00:21:46;;;;;;;;;;;8.40;99.90;;;;;;5008884;28;19926;-64
2024/02/09 00:24:20;;;;;;;;;;;8.30;99.90;;;;;;5021889;28;20340;-65
2024/02/09 00:26:52;;;;;;;;;;;8.30;99.90;;;;;;5030983;28;20296;-65
2024/02/09 00:29:24;;;;;;;;;;;8.40;99.90;;;;;;5030243;28;20012;-65
2024/02/09 00:31:57;;;;;;;;;;;8.30;99.90;;;;;;5015487;28;19928;-65
2024/02/09 00:34:24;;;;;;;;;;;8.30;99.90;;;;;;5029607;28;19943;-64
2024/02/09 00:36:56;;;;;;;;;;;8.20;99.90;;;;;;5027270;28;19932;-64
2024/02/09 00:39:33;;;;;;;;;;;8.20;99.90;;;;;;5027810;28;19921;-64
2024/02/09 00:42:05;;;;;;;;;;;8.10;99.90;;;;;;5026906;28;19957;-64
2024/02/09 00:44:33;;;;;;;;;;;8.20;99.90;;;;;;5028954;28;19921;-64
2024/02/09 00:47:07;;;;;;;;;;;8.10;99.90;;;;;;5029286;28;20023;-64
2024/02/09 00:49:34;;;;;;;;;;;8.20;99.90;;;;;;5009351;28;19920;-64
2024/02/09 00:52:06;;;;;;;;;;;8.10;99.90;;;;;;5027377;28;19983;-64
2024/02/09 00:54:38;;;;;;;;;;;8.20;99.90;;;;;;5027922;28;19929;-64
2024/02/09 00:57:10;;;;;;;;;;;8.10;99.90;;;;;;5025749;28;19929;-64
2024/02/09 00:59:42;;;;;;;;;;;8.10;99.90;;;;;;5028119;28;19928;-64
2024/02/09 01:02:14;;;;;;;;;;;8.10;99.90;;;;;;5027919;28;19979;-64
2024/02/09 01:04:46;;;;;;;;;;;8.10;99.90;;;;;;5030564;28;20361;-64
2024/02/09 01:07:17;;;;;;;;;;;8.10;99.90;;;;;;5016766;28;20380;-64
2024/02/09 01:09:44;;;;;;;;;;;8.20;99.90;;;;;;5030046;28;19921;-64
2024/02/09 02:45:42;;;;;;;;;;;8.20;99.90;;;;;;5030286;28;19921;-65
2024/02/09 03:05:14;;;;;;;;;;;8.20;99.90;;;;;;5030668;28;19925;-64
2024/02/09 03:07:41;;;;;;;;;;;8.20;99.90;;;;;;5030579;28;20020;-64
2024/02/09 03:10:13;;;;;;;;;;;8.20;99.90;;;;;;5012911;28;19921;-65
2024/02/09 03:12:45;;;;;;;;;;;8.20;99.90;;;;;;5030111;28;20419;-65
2024/02/09 03:15:20;;;;;;;;;;;8.20;99.90;;;;;;5030332;28;19928;-64
2024/02/09 03:17:49;;;;;;;;;;;8.20;99.90;;;;;;5031493;28;19964;-64
2024/02/09 03:20:15;;;;;;;;;;;8.20;99.90;;;;;;5028325;28;20370;-64
2024/02/09 03:22:47;;;;;;;;;;;8.20;99.90;;;;;;5029414;28;19931;-65
2024/02/09 03:25:21;;;;;;;;;;;8.20;99.90;;;;;;5022624;28;19960;-64
2024/02/09 03:27:52;;;;;;;;;;;8.20;99.90;;;;;;5012097;28;19952;-65
2024/02/09 03:30:26;;;;;;;;;;;8.10;99.90;;;;;;5025591;28;19920;-65
2024/02/09 03:32:58;;;;;;;;;;;8.10;99.90;;;;;;5015421;28;19928;-65
2024/02/09 03:35:31;;;;;;;;;;;8.10;99.90;;;;;;5005749;28;19924;-65
2024/02/09 03:37:58;;;;;;;;;;;8.10;99.90;;;;;;5030966;28;19921;-65
2024/02/09 03:40:32;;;;;;;;;;;8.10;99.90;;;;;;5033180;28;19925;-66
2024/02/09 03:43:04;;;;;;;;;;;8.20;99.90;;;;;;5030832;28;20304;-65
2024/02/09 03:45:41;;;;;;;;;;;8.20;99.90;;;;;;5029533;28;19925;-65
2024/02/09 03:48:13;;;;;;;;;;;8.20;99.90;;;;;;5027233;28;19927;-65
2024/02/09 03:50:44;;;;;;;;;;;8.20;99.90;;;;;;5026951;28;20296;-64
2024/02/09 03:53:16;;;;;;;;;;;8.20;99.90;;;;;;5028633;28;19931;-64
2024/02/09 03:55:48;;;;;;;;;;;8.20;99.90;;;;;;5009539;28;20020;-64
2024/02/09 03:58:20;;;;;;;;;;;8.20;99.90;;;;;;5030047;28;19921;-64
2024/02/09 04:00:51;;;;;;;;;;;8.20;99.90;;;;;;5017289;28;20587;-64
2024/02/09 04:03:23;;;;;;;;;;;8.20;99.90;;;;;;5021436;28;20015;-64
2024/02/09 04:05:55;;;;;;;;;;;8.20;99.90;;;;;;5029695;28;19927;-64
2024/02/09 04:08:22;;;;;;;;;;;8.20;99.90;;;;;;5030582;28;19929;-64
2024/02/09 04:10:49;;;;;;;;;;;8.20;99.90;;;;;;5029019;28;19925;-64
2024/02/09 04:13:21;;;;;;;;;;;8.20;99.90;;;;;;5027838;28;20413;-64
2024/02/09 04:15:54;;;;;;;;;;;8.20;99.90;;;;;;5028824;28;19924;-64
2024/02/09 04:18:28;;;;;;;;;;;8.20;99.90;;;;;;5028958;28;20049;-65
2024/02/09 04:21:00;;;;;;;;;;;8.20;99.90;;;;;;5000945;28;20380;-64
2024/02/09 04:23:32;;;;;;;;;;;8.20;99.90;;;;;;5030734;28;19990;-64
2024/02/09 04:25:59;;;;;;;;;;;8.20;99.90;;;;;;5023970;28;19921;-64
2024/02/09 04:28:31;;;;;;;;;;;8.10;99.90;;;;;;5026990;28;19925;-64
2024/02/09 04:31:03;;;;;;;;;;;8.10;99.90;;;;;;5025571;28;19999;-64
2024/02/09 04:33:36;;;;;;;;;;;8.10;99.90;;;;;;5028659;28;19925;-64
2024/02/09 04:36:03;;;;;;;;;;;8.10;99.90;;;;;;5004363;28;19950;-64
2024/02/09 04:38:37;;;;;;;;;;;8.10;99.90;;;;;;5024901;28;19922;-64
2024/02/09 04:41:09;;;;;;;;;;;8.00;99.90;;;;;;5030402;28;19920;-64
2024/02/09 04:43:41;;;;;;;;;;;8.00;99.90;;;;;;5023561;28;19921;-64
2024/02/09 04:46:23;;;;;;;;;;;8.00;99.90;;;;;;5027609;28;20510;-64
2024/02/09 04:48:55;;;;;;;;;;;8.00;99.90;;;;;;5029482;28;19921;-64
2024/02/09 04:51:27;;;;;;;;;;;8.00;99.90;;;;;;5016352;28;20397;-64
2024/02/09 04:53:59;;;;;;;;;;;8.00;99.90;;;;;;5027988;28;20377;-64
2024/02/09 04:56:32;;;;;;;;;;;8.00;99.90;;;;;;5011911;28;19929;-64
2024/02/09 04:59:07;;;;;;;;;;;8.00;99.90;;;;;;5028968;28;19928;-65
2024/02/09 05:01:40;;;;;;;;;;;8.00;99.90;;;;;;5008485;28;19922;-65
2024/02/09 05:04:13;;;;;;;;;;;8.10;99.90;;;;;;5029678;28;19928;-65
2024/02/09 05:06:44;;;;;;;;;;;8.00;99.90;;;;;;5027348;28;19925;-65
2024/02/09 05:09:29;;;;;;;;;;;8.00;99.90;;;;;;5005024;28;19975;-65
2024/02/09 05:12:01;;;;;;;;;;;8.00;99.90;;;;;;5028377;28;19925;-65
2024/02/09 05:14:29;;;;;;;;;;;8.00;99.90;;;;;;5006958;28;19925;-65
2024/02/09 05:17:01;;;;;;;;;;;8.00;99.90;;;;;;5025967;28;20413;-64
2024/02/09 05:19:28;;;;;;;;;;;8.00;99.90;;;;;;5029768;28;20292;-65
2024/02/09 05:21:59;;;;;;;;;;;8.00;99.90;;;;;;5026164;28;19927;-65
2024/02/09 05:24:32;;;;;;;;;;;8.00;99.90;;;;;;5024424;28;19931;-64
2024/02/09 05:27:04;;;;;;;;;;;8.00;99.90;;;;;;5024365;28;20357;-64
2024/02/09 05:29:31;;;;;;;;;;;8.00;99.90;;;;;;5028156;28;20313;-64
2024/02/09 05:32:03;;;;;;;;;;;8.00;99.90;;;;;;5025156;28;19971;-64
2024/02/09 05:34:35;;;;;;;;;;;8.00;99.90;;;;;;5025068;28;19931;-64
2024/02/09 05:37:07;;;;;;;;;;;8.00;99.90;;;;;;5006792;28;19979;-64
2024/02/09 05:39:43;;;;;;;;;;;8.00;99.90;;;;;;5028521;28;19928;-64
2024/02/09 05:42:09;;;;;;;;;;;8.00;99.90;;;;;;5023209;28;19952;-64
2024/02/09 05:44:36;;;;;;;;;;;8.10;99.90;;;;;;5024792;28;19925;-65
2024/02/09 05:47:08;;;;;;;;;;;8.10;99.90;;;;;;5007891;28;19928;-64
2024/02/09 05:49:37;;;;;;;;;;;8.10;99.90;;;;;;5028680;28;19922;-64
2024/02/09 05:52:11;;;;;;;;;;;8.10;99.90;;;;;;5031338;28;19924;-64
2024/02/09 05:54:37;;;;;;;;;;;8.00;99.90;;;;;;5027699;28;20203;-64
2024/02/09 05:57:06;;;;;;;;;;;8.00;99.90;;;;;;5032270;28;20015;-64
2024/02/09 05:59:41;;;;;;;;;;;8.00;99.90;;;;;;5032448;28;20020;-64
2024/02/09 06:02:13;;;;;;;;;;;8.00;99.90;;;;;;5025974;28;20023;-65
2024/02/09 06:04:45;;;;;;;;;;;8.00;99.90;;;;;;5031754;28;20363;-65
2024/02/09 06:07:16;;;;;;;;;;;8.00;99.90;;;;;;5022813;28;19921;-65
2024/02/09 06:09:48;;;;;;;;;;;7.90;99.90;;;;;;5030350;28;19984;-65
2024/02/09 06:12:20;;;;;;;;;;;7.90;99.90;;;;;;5028705;28;19929;-65
2024/02/09 06:14:52;;;;;;;;;;;7.90;99.90;;;;;;5030106;28;20907;-65
2024/02/09 06:17:24;;;;;;;;;;;7.90;99.90;;;;;;5030519;28;19921;-65
2024/02/09 06:19:56;;;;;;;;;;;7.90;99.90;;;;;;5031576;28;20015;-65
2024/02/09 06:22:28;;;;;;;;;;;7.90;99.90;;;;;;5026388;28;20444;-65
2024/02/09 06:25:00;;;;;;;;;;;7.90;99.90;;;;;;5030801;28;20424;-65
2024/02/09 06:27:27;;;;;;;;;;;7.90;99.90;;;;;;5031539;28;20340;-65
2024/02/09 06:29:59;;;;;;;;;;;7.90;99.90;;;;;;5013558;28;19937;-65
2024/02/09 06:32:31;;;;;;;;;;;7.90;99.90;;;;;;5014114;28;19960;-65
2024/02/09 06:35:01;;;;;;;;;;;7.90;99.90;;;;;;5026774;28;19943;-65
2024/02/09 06:37:34;;;;;;;;;;;7.90;99.90;;;;;;5031243;28;19948;-65
2024/02/09 06:40:08;;;;;;;;;;;7.90;99.90;;;;;;5011302;28;20442;-65
2024/02/09 06:42:43;;;;;;;;;;;7.90;99.90;;;;;;5029546;28;19931;-65
2024/02/09 06:45:16;;;;;;;;;;;8.00;99.90;;;;;;5031114;28;20296;-65
2024/02/09 06:47:48;;;;;;;;;;;8.00;99.90;;;;;;5031014;28;19921;-65
2024/02/09 06:50:21;;;;;;;;;;;8.00;99.90;;;;;;5033208;28;20147;-65
2024/02/09 06:52:48;;;;;;;;;;;8.00;99.90;;;;;;5030851;28;19947;-65
2024/02/09 06:55:20;;;;;;;;;;;8.10;99.90;;;;;;5006033;28;19936;-65
2024/02/09 06:57:52;;;;;;;;;;;8.10;99.90;;;;;;5031784;28;19920;-65
2024/02/09 07:00:26;;;;;;;;;;;8.10;99.90;;;;;;5029539;28;20340;-65
2024/02/09 07:02:58;;;;;;;;;;;8.20;99.90;;;;;;5014638;28;20328;-65
2024/02/09 07:05:30;;;;;;;;;;;8.20;99.90;;;;;;5027904;28;19925;-65
2024/02/09 07:08:02;;;;;;;;;;;8.20;99.90;;;;;;5013975;28;19925;-65
2024/02/09 07:10:34;;;;;;;;;;;8.20;99.90;;;;;;5015893;28;19929;-64
2024/02/09 07:13:06;;;;;;;;;;;8.20;99.90;;;;;;5030811;28;19932;-65
2024/02/09 07:15:38;;;;;;;;;;;8.30;99.90;;;;;;5028496;28;19932;-65
2024/02/09 07:18:10;;;;;;;;;;;8.30;99.90;;;;;;5010049;28;19964;-65
2024/02/09 07:20:42;;;;;;;;;;;8.30;99.90;;;;;;5009488;28;19956;-65
2024/02/09 07:23:14;;;;;;;;;;;8.30;99.90;;;;;;5030880;28;19932;-65
2024/02/09 07:25:46;;;;;;;;;;;8.30;99.90;;;;;;5027183;28;19932;-65
2024/02/09 07:28:18;;;;;;;;;;;8.30;99.90;;;;;;5029520;28;20385;-65
2024/02/09 07:30:50;;;;;;;;;;;8.30;99.90;;;;;;5030869;28;19920;-65
2024/02/09 07:33:21;;;;;;;;;;;8.40;99.90;;;;;;5027426;28;19921;-65
2024/02/09 07:35:53;;;;;;;;;;;8.40;99.90;;;;;;5013772;28;20343;-66
2024/02/09 07:38:25;;;;;;;;;;;8.40;99.90;;;;;;5030662;28;19971;-66
2024/02/09 07:40:52;;;;;;;;;;;8.30;99.90;;;;;;5011951;28;19928;-65
2024/02/09 07:43:23;;;;;;;;;;;8.30;99.90;;;;;;5027640;28;19964;-65
2024/02/09 07:45:50;;;;;;;;;;;8.30;99.90;;;;;;5030231;28;20388;-65
2024/02/09 07:48:22;;;;;;;;;;;8.30;99.90;;;;;;5015602;28;20396;-65
2024/02/09 07:50:55;;;;;;;;;;;8.30;99.90;;;;;;5006659;28;19928;-65
2024/02/09 07:53:30;;;;;;;;;;;8.30;99.90;;;;;;5029206;28;19924;-65
2024/02/09 07:56:02;;;;;;;;;;;8.30;99.90;;;;;;5026984;28;19931;-65
2024/02/09 07:58:34;;;;;;;;;;;8.40;99.90;;;;;;5008320;28;19960;-65
2024/02/09 08:01:01;;;;;;;;;;;8.30;99.90;;;;;;5030797;28;20027;-65
2024/02/09 08:03:38;;;;;;;;;;;8.30;99.90;;;;;;5028235;28;19925;-65
2024/02/09 08:06:09;;;;;;;;;;;8.40;99.90;;;;;;5027298;28;19943;-65
2024/02/09 08:08:36;;;;;;;;;;;8.40;99.90;;;;;;5027475;28;20008;-65
2024/02/09 08:11:08;;;;;;;;;;;8.50;99.90;;;;;;5028894;28;20371;-65
2024/02/09 08:13:40;;;;;;;;;;;8.50;99.90;;;;;;5027300;28;19940;-65
2024/02/09 08:16:12;;;;;;;;;;;8.50;99.90;;;;;;5011196;28;19987;-65
2024/02/09 08:18:44;;;;;;;;;;;8.50;99.90;;;;;;5020857;28;19925;-65
2024/02/09 08:21:17;;;;;;;;;;;8.50;99.90;;;;;;5030050;28;19929;-65
2024/02/09 08:23:49;;;;;;;;;;;8.60;99.90;;;;;;5027424;28;19929;-65
2024/02/09 08:26:22;;;;;;;;;;;8.60;99.90;;;;;;5026816;28;20337;-65
2024/02/09 08:28:55;;;;;;;;;;;8.60;99.90;;;;;;5028389;28;19929;-65
2024/02/09 08:31:27;;;;;;;;;;;8.60;99.90;;;;;;5008360;28;20345;-65
2024/02/09 08:33:54;;;;;;;;;;;8.70;99.90;;;;;;5029121;28;19920;-65
2024/02/09 08:36:26;;;;;;;;;;;8.70;99.90;;;;;;5012775;28;19924;-65
2024/02/09 08:38:58;;;;;;;;;;;8.80;99.90;;;;;;5028963;28;20538;-65
2024/02/09 08:41:25;;;;;;;;;;;8.80;99.90;;;;;;5012863;28;19925;-65
2024/02/09 08:43:57;;;;;;;;;;;8.90;99.90;;;;;;5009542;28;19929;-65
2024/02/09 08:46:29;;;;;;;;;;;9.00;99.90;;;;;;5013726;28;19928;-65
2024/02/09 08:49:01;;;;;;;;;;;9.00;99.90;;;;;;5012541;28;19925;-65
2024/02/09 08:51:33;;;;;;;;;;;9.10;99.90;;;;;;5025289;28;19990;-65
2024/02/09 08:54:06;;;;;;;;;;;9.10;99.90;;;;;;5029465;28;20016;-65
2024/02/09 08:56:38;;;;;;;;;;;9.20;99.90;;;;;;5028742;28;19929;-65
2024/02/09 08:59:06;;;;;;;;;;;9.20;99.90;;;;;;5010163;28;20465;-65
2024/02/09 09:01:37;;;;;;;;;;;9.10;99.90;;;;;;5027864;28;19972;-65
2024/02/09 09:04:10;;;;;;;;;;;9.20;99.90;;;;;;5029559;28;19932;-65
2024/02/09 09:06:42;;;;;;;;;;;9.20;99.90;;;;;;5023644;28;19929;-65
2024/02/09 09:09:09;;;;;;;;;;;9.30;99.90;;;;;;5028034;28;20407;-65
2024/02/09 09:11:44;;;;;;;;;;;9.30;99.90;;;;;;5028198;28;20320;-65
2024/02/09 09:14:16;;;;;;;;;;;9.40;99.90;;;;;;5030190;28;19956;-64
2024/02/09 09:16:48;;;;;;;;;;;9.40;99.90;;;;;;5026579;28;19947;-65
2024/02/09 09:19:14;;;;;;;;;;;9.40;99.90;;;;;;5029310;28;20730;-64
2024/02/09 09:21:42;;;;;;;;;;;9.50;99.90;;;;;;5028853;28;20330;-65
2024/02/09 09:24:15;;;;;;;;;;;9.50;99.90;;;;;;5031388;28;20010;-64
2024/02/09 09:26:47;;;;;;;;;;;9.50;99.90;;;;;;5027443;28;19925;-64
2024/02/09 09:29:19;;;;;;;;;;;9.50;99.90;;;;;;5029891;28;19936;-65
2024/02/09 09:31:51;;;;;;;;;;;9.60;99.90;;;;;;5027616;28;19932;-64
2024/02/09 09:34:23;;;;;;;;;;;9.60;99.90;;;;;;5026557;28;20015;-64
2024/02/09 09:36:55;;;;;;;;;;;9.70;99.90;;;;;;5028102;28;20407;-64
2024/02/09 09:39:26;;;;;;;;;;;9.70;99.90;;;;;;5024521;28;19921;-64
2024/02/09 09:42:00;;;;;;;;;;;9.80;99.90;;;;;;5029994;28;19928;-64
2024/02/09 09:44:33;;;;;;;;;;;9.90;99.90;;;;;;5004353;28;19925;-64
2024/02/09 09:47:09;;;;;;;;;;;10.00;99.90;;;;;;5026533;28;20465;-64
2024/02/09 09:49:41;;;;;;;;;;;10.00;99.90;;;;;;5009105;28;20443;-64
2024/02/09 09:52:25;;;;;;;;;;;10.10;99.90;;;;;;5029885;28;19920;-65
2024/02/09 09:54:58;;;;;;;;;;;10.10;99.90;;;;;;5025402;28;19921;-65
2024/02/09 09:57:30;;;;;;;;;;;10.20;99.90;;;;;;5025272;28;19927;-65
2024/02/09 10:00:03;;;;;;;;;;;10.10;99.90;;;;;;5029642;28;19932;-65
2024/02/09 10:02:37;;;;;;;;;;;10.10;99.90;;;;;;5012102;28;20381;-65
2024/02/09 10:05:09;;;;;;;;;;;10.20;99.90;;;;;;5026733;28;19932;-65
2024/02/09 10:07:40;;;;;;;;;;;10.20;99.90;;;;;;5026770;28;19967;-65
2024/02/09 10:10:13;;;;;;;;;;;10.20;99.90;;;;;;5028233;28;20296;-65
2024/02/09 10:12:45;;;;;;;;;;;10.20;99.90;;;;;;5027596;28;19932;-64
2024/02/09 10:15:17;;;;;;;;;;;10.30;99.90;;;;;;5020359;28;19924;-65
2024/02/09 10:17:48;;;;;;;;;;;10.30;99.90;;;;;;5028717;28;19922;-65
2024/02/09 10:20:20;;;;;;;;;;;10.40;99.90;;;;;;5021523;28;20289;-65
2024/02/09 10:22:47;;;;;;;;;;;10.30;99.90;;;;;;5001951;28;20372;-65
2024/02/09 10:25:20;;;;;;;;;;;10.40;99.90;;;;;;5029601;28;19921;-65
2024/02/09 10:27:51;;;;;;;;;;;10.40;99.90;;;;;;5024475;28;19929;-65
2024/02/09 10:30:24;;;;;;;;;;;10.50;99.90;;;;;;5026945;28;19921;-65
2024/02/09 10:32:56;;;;;;;;;;;10.50;99.90;;;;;;5022996;28;19924;-65
2024/02/09 10:35:28;;;;;;;;;;;10.50;99.90;;;;;;5026334;28;19924;-66
2024/02/09 10:37:57;;;;;;;;;;;10.50;99.90;;;;;;5031922;28;20004;-65
2024/02/09 10:40:25;;;;;;;;;;;10.50;99.90;;;;;;5013861;28;19975;-65
2024/02/09 10:42:57;;;;;;;;;;;10.60;99.90;;;;;;5028838;28;19927;-65
2024/02/09 10:45:29;;;;;;;;;;;10.60;99.90;;;;;;5028750;28;19932;-65
2024/02/09 10:48:02;;;;;;;;;;;10.70;99.90;;;;;;5033068;28;19925;-65
2024/02/09 10:50:34;;;;;;;;;;;10.70;99.90;;;;;;5037089;28;20408;-65
2024/02/09 10:53:10;;;;;;;;;;;10.80;99.90;;;;;;5031311;28;19929;-65
2024/02/09 10:55:44;;;;;;;;;;;10.80;99.90;;;;;;5022413;28;20608;-65
2024/02/09 10:58:17;;;;;;;;;;;10.80;99.90;;;;;;5028525;28;20109;-65
2024/02/09 11:00:49;;;;;;;;;;;10.80;99.90;;;;;;4995186;28;19948;-65
2024/02/09 11:03:20;;;;;;;;;;;10.80;99.90;;;;;;5031906;28;19925;-65
2024/02/09 11:05:53;;;;;;;;;;;10.80;99.90;;;;;;5014946;28;19983;-65
2024/02/09 11:08:25;;;;;;;;;;;10.80;99.90;;;;;;5030474;28;19928;-65
2024/02/09 11:11:05;;;;;;;;;;;10.80;99.90;;;;;;5032170;28;19929;-65
2024/02/09 11:13:37;;;;;;;;;;;10.90;99.90;;;;;;5022832;28;21434;-65
2024/02/09 11:16:09;;;;;;;;;;;10.90;99.90;;;;;;5029626;28;19932;-65
2024/02/09 11:18:41;;;;;;;;;;;10.90;99.90;;;;;;5030012;28;19921;-65
2024/02/09 11:21:08;;;;;;;;;;;10.90;99.90;;;;;;5011981;28;19925;-65
2024/02/09 11:23:40;;;;;;;;;;;10.90;99.90;;;;;;5029856;28;19921;-65
2024/02/09 11:26:11;;;;;;;;;;;10.90;99.90;;;;;;5013753;28;19925;-65
2024/02/09 11:28:43;;;;;;;;;;;11.00;99.90;;;;;;5029846;28;20385;-64
2024/02/09 11:31:18;;;;;;;;;;;11.00;99.90;;;;;;5029571;28;19948;-65
2024/02/09 11:33:46;;;;;;;;;;;11.00;99.90;;;;;;5029090;28;20015;-65
2024/02/09 11:36:13;;;;;;;;;;;11.00;99.90;;;;;;5030222;28;19952;-64
2024/02/09 11:38:44;;;;;;;;;;;11.10;99.90;;;;;;5027622;28;20654;-65
2024/02/09 11:41:16;;;;;;;;;;;11.10;99.90;;;;;;5026091;28;19932;-65
2024/02/09 11:43:48;;;;;;;;;;;11.20;99.90;;;;;;5008060;28;20292;-65
2024/02/09 11:46:20;;;;;;;;;;;11.30;99.90;;;;;;5028315;28;19960;-65
2024/02/09 11:48:52;;;;;;;;;;;11.30;99.90;;;;;;5008911;28;20301;-65
2024/02/09 11:51:24;;;;;;;;;;;11.40;99.90;;;;;;5030870;28;20346;-65
2024/02/09 11:53:56;;;;;;;;;;;11.50;99.90;;;;;;5032002;28;19990;-64
2024/02/09 11:56:28;;;;;;;;;;;11.60;99.90;;;;;;5009549;28;19921;-65
2024/02/09 11:58:56;;;;;;;;;;;11.70;99.90;;;;;;5013031;28;20016;-65
2024/02/09 12:01:23;;;;;;;;;;;11.80;99.90;;;;;;5024536;28;19935;-64
2024/02/09 12:03:50;;;;;;;;;;;11.90;99.90;;;;;;5027022;28;19924;-64
2024/02/09 12:06:23;;;;;;;;;;;11.90;99.90;;;;;;5030138;28;19929;-64
2024/02/09 12:08:55;;;;;;;;;;;12.00;99.90;;;;;;5027157;28;19972;-65
2024/02/09 12:11:27;;;;;;;;;;;12.10;99.90;;;;;;5024150;28;19933;-64
2024/02/09 12:13:59;;;;;;;;;;;12.10;99.90;;;;;;5026132;28;20003;-64
2024/02/09 12:16:26;;;;;;;;;;;12.10;99.90;;;;;;5029721;28;19974;-64
2024/02/09 12:18:58;;;;;;;;;;;12.10;99.90;;;;;;5019967;28;19925;-64
2024/02/09 12:21:30;;;;;;;;;;;12.10;99.90;;;;;;5029757;28;19925;-65
2024/02/09 12:23:57;;;;;;;;;;;12.10;99.90;;;;;;5015982;28;19930;-65
2024/02/09 12:26:30;;;;;;;;;;;12.10;99.90;;;;;;5029484;28;19979;-65
2024/02/09 12:29:09;;;;;;;;;;;12.10;99.90;;;;;;5030227;28;19921;-65
2024/02/09 12:31:43;;;;;;;;;;;12.20;99.90;;;;;;5026957;28;19999;-65
2024/02/09 12:34:16;;;;;;;;;;;12.20;99.90;;;;;;5009818;28;20007;-64
2024/02/09 12:36:55;;;;;;;;;;;12.20;99.90;;;;;;5027925;28;20428;-65
2024/02/09 12:39:28;;;;;;;;;;;12.20;99.90;;;;;;5009125;28;19925;-65
2024/02/09 12:42:01;;;;;;;;;;;12.20;99.90;;;;;;5027208;28;20304;-64
2024/02/09 12:44:32;;;;;;;;;;;12.20;99.90;;;;;;5033062;28;19925;-64
2024/02/09 12:47:07;;;;;;;;;;;12.20;99.90;;;;;;5008274;28;19921;-64
2024/02/09 12:49:39;;;;;;;;;;;12.30;99.90;;;;;;5028874;28;19929;-64
2024/02/09 12:52:14;;;;;;;;;;;12.20;99.90;;;;;;5030348;28;19924;-64
2024/02/09 12:54:46;;;;;;;;;;;12.30;99.90;;;;;;5030771;28;19927;-64
2024/02/09 12:57:18;;;;;;;;;;;12.20;99.90;;;;;;5012593;28;19947;-65
2024/02/09 12:59:50;;;;;;;;;;;12.20;99.90;;;;;;5029173;28;19921;-64
2024/02/09 13:02:25;;;;;;;;;;;12.20;99.90;;;;;;5008068;28;19920;-64
2024/02/09 13:04:56;;;;;;;;;;;12.20;99.90;;;;;;5024131;28;20292;-64
2024/02/09 13:07:23;;;;;;;;;;;12.10;99.90;;;;;;5028237;28;19935;-64
2024/02/09 13:09:50;;;;;;;;;;;12.10;99.90;;;;;;5009076;28;19936;-64
2024/02/09 13:12:22;;;;;;;;;;;12.10;99.90;;;;;;5025634;28;20363;-64
2024/02/09 13:14:49;;;;;;;;;;;12.00;99.90;;;;;;5006327;28;19948;-64
2024/02/09 13:17:16;;;;;;;;;;;12.00;99.90;;;;;;5009163;28;20008;-64
2024/02/09 13:19:43;;;;;;;;;;;12.10;99.90;;;;;;5013828;28;19922;-64
2024/02/09 13:22:15;;;;;;;;;;;12.10;99.90;;;;;;5027729;28;19960;-64
2024/02/09 13:24:42;;;;;;;;;;;12.10;99.90;;;;;;5027624;28;19921;-64
2024/02/09 13:27:14;;;;;;;;;;;12.00;99.90;;;;;;5024090;28;19976;-64
2024/02/09 13:29:46;;;;;;;;;;;11.90;99.90;;;;;;4996380;28;19968;-64
2024/02/09 13:32:18;;;;;;;;;;;11.90;99.90;;;;;;5027370;28;19932;-64
2024/02/09 13:34:51;;;;;;;;;;;11.90;99.90;;;;;;5026771;28;19921;-63
2024/02/09 13:37:18;;;;;;;;;;;12.00;99.90;;;;;;5027223;28;19998;-64
2024/02/09 13:39:44;;;;;;;;;;;11.90;99.90;;;;;;5031678;28;19925;-64
2024/02/09 13:42:21;;;;;;;;;;;11.90;99.90;;;;;;5028053;28;19921;-64
2024/02/09 13:44:52;;;;;;;;;;;11.90;99.90;;;;;;5027659;28;19940;-63
2024/02/09 13:47:19;;;;;;;;;;;11.90;99.90;;;;;;5018327;28;20480;-63
2024/02/09 13:49:46;;;;;;;;;;;11.80;99.90;;;;;;5024763;28;19928;-63
2024/02/09 13:52:13;;;;;;;;;;;11.80;99.90;;;;;;5026098;28;20381;-63
2024/02/09 13:54:45;;;;;;;;;;;11.80;99.90;;;;;;5029459;28;19944;-63
2024/02/09 13:57:18;;;;;;;;;;;11.90;99.90;;;;;;5010036;28;19948;-64
2024/02/09 13:59:50;;;;;;;;;;;11.80;99.90;;;;;;5012934;28;19924;-64
2024/02/09 14:02:21;;;;;;;;;;;11.80;99.90;;;;;;5012407;28;20045;-65
2024/02/09 14:04:53;;;;;;;;;;;11.80;99.90;;;;;;5009607;28;19925;-64
2024/02/09 14:07:25;;;;;;;;;;;11.70;99.90;;;;;;5029482;28;19960;-65
2024/02/09 14:09:52;;;;;;;;;;;11.70;99.90;;;;;;5030688;28;20438;-63
2024/02/09 14:12:24;;;;;;;;;;;11.70;99.90;;;;;;5011798;28;19925;-65
2024/02/09 14:14:55;;;;;;;;;;;11.70;99.90;;;;;;5030555;28;19925;-64
2024/02/09 14:17:22;;;;;;;;;;;11.60;99.90;;;;;;5033012;28;20509;-64
2024/02/09 14:19:54;;;;;;;;;;;11.60;99.90;;;;;;5032034;28;19927;-65
2024/02/09 14:22:21;;;;;;;;;;;11.50;99.90;;;;;;5030401;28;20384;-65
2024/02/09 14:24:53;;;;;;;;;;;11.50;99.90;;;;;;5000900;28;20289;-65
2024/02/09 14:27:25;;;;;;;;;;;11.40;99.90;;;;;;5030266;28;20383;-65
2024/02/09 14:29:59;;;;;;;;;;;11.40;99.90;;;;;;5033249;28;20513;-65
2024/02/09 14:32:25;;;;;;;;;;;11.30;99.90;;;;;;5016308;28;20397;-64
2024/02/09 14:34:57;;;;;;;;;;;11.30;99.90;;;;;;5028745;28;19921;-64
2024/02/09 14:37:29;;;;;;;;;;;11.30;99.90;;;;;;5033734;28;19921;-64
2024/02/09 14:40:01;;;;;;;;;;;11.30;99.90;;;;;;5016137;28;19971;-64
2024/02/09 14:42:28;;;;;;;;;;;11.20;99.90;;;;;;5033846;28;19927;-64
2024/02/09 14:45:02;;;;;;;;;;;11.10;99.90;;;;;;5009563;28;19967;-64
2024/02/09 14:47:33;;;;;;;;;;;11.20;99.90;;;;;;5030315;28;19921;-65
2024/02/09 14:50:08;;;;;;;;;;;11.10;99.90;;;;;;5032858;28;19928;-65
2024/02/09 14:52:35;;;;;;;;;;;11.10;99.90;;;;;;5030610;28;20373;-64
2024/02/09 14:55:02;;;;;;;;;;;11.10;99.90;;;;;;5032467;28;19932;-64
2024/02/09 14:57:33;;;;;;;;;;;11.10;99.90;;;;;;5032363;28;20007;-64
2024/02/09 15:00:06;;;;;;;;;;;11.10;99.90;;;;;;5031527;28;19925;-64
2024/02/09 15:02:38;;;;;;;;;;;11.10;99.90;;;;;;5032907;28;19925;-65
2024/02/09 15:05:14;;;;;;;;;;;11.10;99.90;;;;;;5031480;28;19920;-64
2024/02/09 15:07:46;;;;;;;;;;;11.00;99.90;;;;;;5010799;28;20467;-64
2024/02/09 15:10:18;;;;;;;;;;;11.00;99.90;;;;;;5021847;28;19931;-64
2024/02/09 15:12:49;;;;;;;;;;;11.00;99.90;;;;;;5031345;28;19983;-64
2024/02/09 15:15:23;;;;;;;;;;;10.90;99.90;;;;;;5025401;28;19952;-64
2024/02/09 15:18:00;;;;;;;;;;;10.90;99.90;;;;;;5029332;28;19997;-65
2024/02/09 15:20:32;;;;;;;;;;;10.90;99.90;;;;;;5026463;28;20024;-64
2024/02/09 15:23:05;;;;;;;;;;;10.80;99.90;;;;;;5024787;28;19927;-64
2024/02/09 15:25:36;;;;;;;;;;;10.80;99.90;;;;;;5014122;28;20320;-64
2024/02/09 15:28:08;;;;;;;;;;;10.80;99.90;;;;;;5023287;28;19929;-64
2024/02/09 15:30:40;;;;;;;;;;;10.70;99.90;;;;;;5011650;28;20452;-64
2024/02/09 15:33:12;;;;;;;;;;;10.80;99.90;;;;;;5030549;28;19992;-64
2024/02/09 15:35:44;;;;;;;;;;;10.70;99.90;;;;;;5031326;28;19921;-65
2024/02/09 15:38:16;;;;;;;;;;;10.70;99.90;;;;;;5009281;28;20316;-64
2024/02/09 15:40:48;;;;;;;;;;;10.60;99.90;;;;;;5031059;28;19925;-64
2024/02/09 15:43:15;;;;;;;;;;;10.60;99.90;;;;;;5031358;28;20016;-64
2024/02/09 15:45:48;;;;;;;;;;;10.60;99.90;;;;;;5024073;28;20331;-64
2024/02/09 15:48:20;;;;;;;;;;;10.50;99.90;;;;;;5031540;28;19921;-64
2024/02/09 15:50:52;;;;;;;;;;;10.50;99.90;;;;;;5031131;28;20464;-64
2024/02/09 15:53:19;;;;;;;;;;;10.50;99.90;;;;;;5030809;28;20374;-64
2024/02/09 15:55:52;;;;;;;;;;;10.50;99.90;;;;;;5028889;28;19921;-64
2024/02/09 15:58:26;;;;;;;;;;;10.40;99.90;;;;;;5031613;28;20407;-64
2024/02/09 16:00:53;;;;;;;;;;;10.40;99.90;;;;;;5029085;28;20325;-64
2024/02/09 16:03:20;;;;;;;;;;;10.40;99.90;;;;;;5025525;28;20461;-64
2024/02/09 16:05:55;;;;;;;;;;;10.40;99.90;;;;;;5029287;28;19957;-64
2024/02/09 16:08:27;;;;;;;;;;;10.40;99.90;;;;;;5023568;28;19928;-64
2024/02/09 16:10:58;;;;;;;;;;;10.40;99.90;;;;;;5026828;28;19935;-64
2024/02/09 16:13:26;;;;;;;;;;;10.30;99.90;;;;;;5030900;28;19925;-64
2024/02/09 16:15:58;;;;;;;;;;;10.30;99.90;;;;;;5025431;28;19975;-64
2024/02/09 16:18:26;;;;;;;;;;;10.30;99.90;;;;;;5030554;28;19929;-64
2024/02/09 16:20:52;;;;;;;;;;;10.30;99.90;;;;;;5029621;28;19964;-65
2024/02/09 16:23:24;;;;;;;;;;;10.30;99.90;;;;;;5028479;28;20316;-64
2024/02/09 16:25:52;;;;;;;;;;;10.30;99.90;;;;;;5018353;28;19927;-65
2024/02/09 16:28:24;;;;;;;;;;;10.20;99.90;;;;;;5028796;28;19931;-64
2024/02/09 16:30:56;;;;;;;;;;;10.20;99.90;;;;;;5026425;28;19976;-64
2024/02/09 16:33:28;;;;;;;;;;;10.20;99.90;;;;;;5009645;28;19948;-64
2024/02/09 16:36:00;;;;;;;;;;;10.20;99.90;;;;;;5027822;28;19921;-64
2024/02/09 16:38:32;;;;;;;;;;;10.20;99.90;;;;;;5029584;28;19956;-64